Time;durP1;ratioP1;P1;durP2;ratioP2;P2;SDS_P1;SDS_P2;PMS_P1;PMS_P2;Temp;Humidity;BMP_temperature;BMP_pressure;BME280_temperature;BME280_humidity;BME280_pressure;Samples;Min_cycle;Max_cycle;Signal;HPM_P1;HPM_P2
2023/10/01 00:00:27;;;;;;;5.10;2.20;;;;;;;12.44;100.00;97244.81;5075262;28;20239;-70
2023/10/01 00:02:54;;;;;;;6.90;2.73;;;;;;;12.40;100.00;97245.31;5075882;28;20230;-70
2023/10/01 00:05:22;;;;;;;6.47;3.13;;;;;;;12.26;100.00;97249.41;5075412;28;20942;-70
2023/10/01 00:07:51;;;;;;;8.20;2.43;;;;;;;12.35;100.00;97243.16;5074302;28;20240;-70
2023/10/01 00:10:19;;;;;;;8.27;2.93;;;;;;;12.41;100.00;97245.16;5075289;28;20204;-70
2023/10/01 00:12:47;;;;;;;7.03;2.37;;;;;;;12.57;100.00;97242.50;5074701;28;20200;-69
2023/10/01 00:15:17;;;;;;;3.27;2.03;;;;;;;12.59;100.00;97242.31;5074517;28;20199;-69
2023/10/01 00:17:46;;;;;;;4.57;2.30;;;;;;;12.41;100.00;97239.84;5075273;28;20214;-70
2023/10/01 00:20:17;;;;;;;5.57;2.57;;;;;;;12.41;100.00;97233.72;5074841;28;20292;-70
2023/10/01 00:22:43;;;;;;;7.73;2.93;;;;;;;12.22;100.00;97236.69;5074649;28;20212;-69
2023/10/01 00:25:11;;;;;;;6.80;3.13;;;;;;;12.34;100.00;97238.03;5076114;28;20322;-69
2023/10/01 00:27:38;;;;;;;6.50;2.67;;;;;;;12.04;100.00;97240.44;5074892;28;20199;-70
2023/10/01 00:30:08;;;;;;;9.87;2.73;;;;;;;12.27;100.00;97237.84;5075967;28;20290;-70
2023/10/01 00:32:35;;;;;;;8.70;2.97;;;;;;;12.18;100.00;97241.47;5074590;28;20755;-70
2023/10/01 00:35:05;;;;;;;6.43;3.07;;;;;;;12.18;100.00;97244.13;5075572;28;20292;-70
2023/10/01 00:37:33;;;;;;;7.70;3.43;;;;;;;12.05;100.00;97242.09;5074010;28;20196;-69
2023/10/01 00:40:00;;;;;;;8.33;2.73;;;;;;;12.23;100.00;97240.97;5075306;28;20647;-70
2023/10/01 00:42:28;;;;;;;6.03;2.73;;;;;;;12.45;100.00;97241.19;5075082;28;20229;-70
2023/10/01 00:44:55;;;;;;;16.90;3.47;;;;;;;12.36;100.00;97234.22;5074897;28;20223;-70
2023/10/01 00:47:22;;;;;;;8.43;3.07;;;;;;;12.46;100.00;97237.56;5073878;28;20208;-70
2023/10/01 00:49:50;;;;;;;4.23;2.10;;;;;;;12.55;100.00;97241.84;5075155;28;20638;-70
2023/10/01 00:52:18;;;;;;;5.50;2.47;;;;;;;12.56;100.00;97242.66;5074558;28;20227;-70
2023/10/01 00:54:45;;;;;;;5.50;2.73;;;;;;;12.51;100.00;97237.88;5074728;28;20681;-70
2023/10/01 00:57:11;;;;;;;8.90;2.67;;;;;;;12.42;100.00;97230.94;5075520;28;20201;-70
2023/10/01 00:59:39;;;;;;;5.90;2.50;;;;;;;12.67;100.00;97229.94;5074828;28;20211;-69
2023/10/01 01:02:09;;;;;;;7.50;2.53;;;;;;;12.50;100.00;97228.28;5075526;28;20224;-69
2023/10/01 01:04:42;;;;;;;4.80;2.10;;;;;;;12.49;100.00;97231.94;5075805;28;20216;-70
2023/10/01 01:07:14;;;;;;;6.03;3.10;;;;;;;12.35;100.00;97232.56;5075080;28;20203;-70
2023/10/01 01:09:41;;;;;;;7.90;2.90;;;;;;;12.35;100.00;97234.41;5073896;28;21246;-70
2023/10/01 01:12:08;;;;;;;7.97;2.60;;;;;;;12.21;100.00;97229.75;5074959;28;20302;-70
2023/10/01 01:14:35;;;;;;;6.57;3.23;;;;;;;12.18;100.00;97222.97;5074221;28;20590;-70
2023/10/01 01:17:04;;;;;;;9.27;2.93;;;;;;;12.32;100.00;97219.69;5077528;28;20208;-70
2023/10/01 01:19:30;;;;;;;7.10;2.43;;;;;;;12.17;100.00;97216.03;5077409;28;20743;-70
2023/10/01 01:21:57;;;;;;;7.63;3.07;;;;;;;12.02;100.00;97216.03;5077995;28;20227;-69
2023/10/01 01:24:24;;;;;;;7.43;2.87;;;;;;;12.08;100.00;97213.56;5077955;28;20211;-70
2023/10/01 01:26:51;;;;;;;13.77;2.93;;;;;;;12.03;100.00;97217.66;5077676;28;20200;-70
2023/10/01 01:29:29;;;;;;;8.33;3.23;;;;;;;11.87;100.00;97215.81;5077987;28;20771;-70
2023/10/01 01:32:06;;;;;;;5.87;3.23;;;;;;;11.99;100.00;97217.16;5077113;28;20228;-70
2023/10/01 01:34:34;;;;;;;7.87;2.80;;;;;;;11.97;100.00;97211.22;5078452;28;20211;-70
2023/10/01 01:37:05;;;;;;;7.80;3.33;;;;;;;11.99;100.00;97213.69;5077184;28;20620;-70
2023/10/01 01:39:45;;;;;;;8.33;2.97;;;;;;;12.20;100.00;97205.13;5078044;28;20207;-70
2023/10/01 01:42:12;;;;;;;9.33;3.07;;;;;;;11.94;100.00;97215.97;5077307;28;20251;-70
2023/10/01 01:44:39;;;;;;;8.63;3.77;;;;;;;11.91;100.00;97221.59;5077691;28;20200;-70
2023/10/01 01:47:07;;;;;;;9.60;3.50;;;;;;;11.92;100.00;97220.63;5077437;28;20200;-70
2023/10/01 01:49:34;;;;;;;8.90;3.00;;;;;;;11.98;100.00;97214.69;5077378;28;20239;-70
2023/10/01 01:52:03;;;;;;;7.10;3.20;;;;;;;11.97;100.00;97213.03;5077652;28;20227;-70
2023/10/01 01:54:31;;;;;;;7.63;2.63;;;;;;;12.11;100.00;97215.06;5076672;28;21346;-70
2023/10/01 01:57:00;;;;;;;11.10;3.50;;;;;;;12.04;100.00;97204.31;5077185;28;20262;-70
2023/10/01 01:59:28;;;;;;;9.33;2.93;;;;;;;11.73;100.00;97215.59;5077143;28;20239;-70
2023/10/01 02:01:56;;;;;;;8.10;2.80;;;;;;;11.69;100.00;97216.91;5078302;28;20231;-70
2023/10/01 02:04:23;;;;;;;6.57;3.50;;;;;;;11.79;100.00;97212.34;5077051;28;20234;-70
2023/10/01 02:06:51;;;;;;;8.00;2.57;;;;;;;11.86;100.00;97213.31;5077568;28;20231;-70
2023/10/01 02:09:19;;;;;;;8.70;3.00;;;;;;;11.87;100.00;97220.28;5076827;28;20933;-70
2023/10/01 02:11:48;;;;;;;6.07;2.77;;;;;;;12.05;100.00;97218.31;5077126;28;20239;-69
2023/10/01 02:17:05;;;;;;;4.63;2.67;;;;;;;11.69;100.00;97222.19;5077694;28;20200;-69
2023/10/01 02:19:34;;;;;;;6.47;2.97;;;;;;;11.55;100.00;97216.72;5076772;28;20244;-69
2023/10/01 02:22:05;;;;;;;6.43;2.43;;;;;;;11.56;100.00;97211.25;5076705;28;20232;-70
2023/10/01 02:24:45;;;;;;;6.17;2.60;;;;;;;11.52;100.00;97212.56;5077482;28;20226;-70
2023/10/01 02:27:12;;;;;;;7.47;2.53;;;;;;;11.42;100.00;97222.38;5075074;28;20202;-70
2023/10/01 02:30:11;;;;;;;6.70;2.93;;;;;;;11.40;100.00;97220.88;5077011;28;20205;-70
2023/10/01 02:32:33;;;;;;;7.00;3.17;;;;;;;11.42;100.00;97222.38;5076150;28;20272;-70
2023/10/01 02:35:00;;;;;;;5.70;2.30;;;;;;;11.40;100.00;97213.78;5077073;28;20199;-70
2023/10/01 02:37:29;;;;;;;5.03;2.07;;;;;;;11.41;100.00;97215.44;5074044;28;20204;-70
2023/10/01 02:39:56;;;;;;;3.53;2.30;;;;;;;11.47;100.00;97220.09;5077199;28;20222;-70
2023/10/01 02:42:26;;;;;;;4.10;2.23;;;;;;;11.54;100.00;97215.03;5075123;28;21130;-70
2023/10/01 02:44:53;;;;;;;6.23;2.43;;;;;;;11.65;100.00;97213.75;5077089;28;20200;-70
2023/10/01 02:47:22;;;;;;;6.67;2.60;;;;;;;11.70;100.00;97215.94;5075962;28;20203;-70
2023/10/01 02:49:49;;;;;;;3.87;1.97;;;;;;;11.80;100.00;97216.59;5076205;28;20208;-70
2023/10/01 02:52:17;;;;;;;4.53;1.50;;;;;;;11.73;100.00;97215.59;5076248;28;20597;-70
2023/10/01 02:54:43;;;;;;;3.27;1.90;;;;;;;11.72;100.00;97211.31;5076673;28;20696;-70
2023/10/01 02:57:13;;;;;;;2.67;1.53;;;;;;;11.67;100.00;97210.94;5076092;28;20200;-69
2023/10/01 03:00:09;;;;;;;4.80;1.90;;;;;;;11.66;100.00;97206.69;5075911;28;20269;-70
2023/10/01 03:02:30;;;;;;;4.63;2.33;;;;;;;11.81;100.00;97210.34;5075907;28;20369;-70
2023/10/01 03:05:01;;;;;;;4.70;2.63;;;;;;;11.72;100.00;97198.09;5075345;28;20299;-69
2023/10/01 03:07:32;;;;;;;5.70;2.50;;;;;;;11.88;100.00;97198.97;5075468;28;20220;-70
2023/10/01 03:10:00;;;;;;;5.93;2.77;;;;;;;11.75;100.00;97197.81;5076066;28;20214;-70
2023/10/01 03:12:35;;;;;;;11.90;3.37;;;;;;;11.78;100.00;97194.81;5076657;28;20224;-70
2023/10/01 03:15:17;;;;;;;6.77;2.40;;;;;;;11.70;100.00;97186.88;5075839;28;20211;-70
2023/10/01 03:17:56;;;;;;;6.57;3.03;;;;;;;11.75;100.00;97180.13;5075674;28;20230;-69
2023/10/01 03:23:04;;;;;;;6.50;2.10;;;;;;;11.69;100.00;97188.69;5075306;28;20261;-70
2023/10/01 03:25:40;;;;;;;5.07;3.00;;;;;;;11.82;100.00;97188.22;5075507;28;20314;-70
2023/10/01 03:28:07;;;;;;;4.67;2.93;;;;;;;11.54;100.00;97183.38;5076634;28;20221;-70
2023/10/01 03:30:34;;;;;;;6.27;2.63;;;;;;;11.46;100.00;97194.69;5074465;28;20219;-70
2023/10/01 03:33:07;;;;;;;11.80;2.77;;;;;;;11.43;100.00;97191.53;5075435;28;20210;-70
2023/10/01 03:35:34;;;;;;;9.00;2.77;;;;;;;11.20;100.00;97191.28;5076390;28;20257;-70
2023/10/01 03:38:10;;;;;;;6.70;3.20;;;;;;;11.21;100.00;97202.66;5075121;28;20942;-70
2023/10/01 03:40:57;;;;;;;7.73;3.00;;;;;;;11.32;100.00;97195.28;5075128;28;20223;-69
2023/10/01 03:43:31;;;;;;;6.80;3.33;;;;;;;11.42;100.00;97195.16;5076030;28;20204;-70
2023/10/01 03:46:06;;;;;;;5.90;2.87;;;;;;;11.40;100.00;97192.69;5075024;28;20219;-70
2023/10/01 03:48:57;;;;;;;5.67;2.37;;;;;;;11.51;100.00;97199.50;5075068;28;20207;-70
2023/10/01 03:51:28;;;;;;;8.90;3.00;;;;;;;11.36;100.00;97191.34;5075553;28;20724;-69
2023/10/01 03:53:59;;;;;;;6.37;2.90;;;;;;;11.33;100.00;97194.31;5074687;28;20618;-69
2023/10/01 03:56:29;;;;;;;5.67;2.30;;;;;;;11.36;100.00;97196.63;5075791;28;21261;-70
2023/10/01 03:58:57;;;;;;;6.20;2.50;;;;;;;11.27;100.00;97197.56;5074953;28;20204;-69
2023/10/01 04:01:33;;;;;;;8.73;3.13;;;;;;;11.38;100.00;97201.72;5075191;28;20219;-69
2023/10/01 04:04:01;;;;;;;7.67;3.03;;;;;;;11.31;100.00;97198.91;5075038;28;20203;-70
2023/10/01 04:06:30;;;;;;;6.90;3.20;;;;;;;11.18;100.00;97201.16;5074842;28;20223;-69
2023/10/01 04:09:00;;;;;;;5.90;2.93;;;;;;;11.14;100.00;97191.91;5073095;28;20241;-69
2023/10/01 04:14:10;;;;;;;6.27;2.80;;;;;;;10.98;100.00;97194.47;5072828;28;20195;-70
2023/10/01 04:16:42;;;;;;;9.03;3.13;;;;;;;11.01;100.00;97193.34;5067783;28;20290;-70
2023/10/01 04:19:11;;;;;;;7.10;2.50;;;;;;;11.20;100.00;97190.44;5074458;28;20218;-70
2023/10/01 04:21:37;;;;;;;6.33;2.30;;;;;;;10.99;100.00;97190.81;5071565;28;20878;-73
2023/10/01 04:24:04;;;;;;;4.83;2.40;;;;;;;11.01;100.00;97196.78;5074146;28;20199;-70
2023/10/01 04:26:31;;;;;;;4.97;2.40;;;;;;;10.87;100.00;97198.34;5072347;28;20220;-70
2023/10/01 04:28:59;;;;;;;4.17;2.00;;;;;;;10.91;100.00;97194.41;5074165;28;20253;-69
2023/10/01 04:34:23;;;;;;;5.33;2.97;;;;;;;10.89;100.00;97197.19;5044181;28;20196;-70
2023/10/01 04:36:51;;;;;;;8.03;2.30;;;;;;;10.76;100.00;97196.78;5073444;28;20579;-70
2023/10/01 04:39:18;;;;;;;8.00;3.00;;;;;;;10.84;100.00;97196.03;5072930;28;20250;-70
2023/10/01 04:41:45;;;;;;;8.40;3.87;;;;;;;10.81;100.00;97205.06;5072058;28;20782;-70
2023/10/01 04:44:13;;;;;;;6.93;2.60;;;;;;;10.63;100.00;97200.84;5074395;28;20207;-69
2023/10/01 04:46:41;;;;;;;5.07;2.00;;;;;;;10.74;100.00;97208.47;5072924;28;20223;-70
2023/10/01 04:49:26;;;;;;;4.07;2.37;;;;;;;10.69;100.00;97201.03;5074151;28;20546;-70
2023/10/01 04:51:55;;;;;;;5.17;2.60;;;;;;;10.84;100.00;97194.19;5076997;28;20592;-69
2023/10/01 04:54:22;;;;;;;6.93;2.33;;;;;;;10.55;100.00;97196.31;5076617;28;20331;-70
2023/10/01 04:56:50;;;;;;;4.50;2.67;;;;;;;10.61;100.00;97192.25;5076684;28;20196;-70
2023/10/01 04:59:17;;;;;;;5.47;2.40;;;;;;;10.45;100.00;97192.94;5077579;28;21140;-70
2023/10/01 05:01:44;;;;;;;4.17;2.27;;;;;;;10.48;100.00;97197.91;5076450;28;20331;-70
2023/10/01 05:04:11;;;;;;;4.20;2.10;;;;;;;10.45;100.00;97192.94;5077338;28;20199;-69
2023/10/01 05:06:40;;;;;;;4.50;2.30;;;;;;;10.52;100.00;97188.69;5076502;28;20664;-70
2023/10/01 05:09:08;;;;;;;5.63;2.43;;;;;;;10.77;100.00;97197.59;5078693;28;20666;-70
2023/10/01 05:11:34;;;;;;;5.50;2.47;;;;;;;10.69;100.00;97195.78;5077685;28;20223;-70
2023/10/01 05:14:04;;;;;;;6.73;2.60;;;;;;;10.69;100.00;97197.56;5079487;28;20206;-70
2023/10/01 05:16:38;;;;;;;6.17;2.57;;;;;;;10.84;100.00;97194.19;5077870;28;20278;-70
2023/10/01 05:19:10;;;;;;;4.67;2.17;;;;;;;11.16;100.00;97195.22;5079683;28;20196;-71
2023/10/01 05:21:46;;;;;;;4.73;2.97;;;;;;;11.43;100.00;97189.75;5077646;28;20220;-70
2023/10/01 05:24:34;;;;;;;4.37;1.67;;;;;;;11.93;100.00;97201.16;5078437;28;20199;-71
2023/10/01 05:27:02;;;;;;;3.43;1.83;;;;;;;12.52;100.00;97197.22;5077799;28;20219;-70
2023/10/01 05:29:28;;;;;;;4.90;2.30;;;;;;;12.19;100.00;97203.50;5079175;28;20203;-70
2023/10/01 05:31:57;;;;;;;5.10;2.60;;;;;;;11.99;100.00;97211.03;5078528;28;20224;-71
2023/10/01 05:34:25;;;;;;;4.20;1.60;;;;;;;11.68;100.00;97205.53;5078551;28;20556;-70
2023/10/01 05:36:52;;;;;;;5.43;2.33;;;;;;;11.47;100.00;97213.97;5078107;28;20755;-69
2023/10/01 05:39:23;;;;;;;5.47;2.20;;;;;;;11.60;100.00;97209.94;5078889;28;20198;-71
2023/10/01 05:41:51;;;;;;;5.80;2.70;;;;;;;11.20;100.00;97215.03;5078147;28;20223;-72
2023/10/01 05:44:18;;;;;;;4.60;2.50;;;;;;;11.19;100.00;97216.00;5077608;28;20346;-71
2023/10/01 05:46:46;;;;;;;4.70;2.57;;;;;;;11.17;100.00;97215.31;5077629;28;20223;-70
2023/10/01 05:49:13;;;;;;;4.30;2.20;;;;;;;11.40;100.00;97208.50;5077578;28;20204;-71
2023/10/01 05:51:48;;;;;;;4.70;2.17;;;;;;;11.44;100.00;97198.47;5077872;28;20218;-71
2023/10/01 05:54:18;;;;;;;5.70;2.60;;;;;;;11.48;100.00;97198.00;5077189;28;20713;-71
2023/10/01 05:56:48;;;;;;;5.97;2.77;;;;;;;11.70;100.00;97197.44;5077397;28;20200;-71
2023/10/01 05:59:16;;;;;;;4.40;2.80;;;;;;;11.23;100.00;97190.97;5077619;28;20220;-70
2023/10/01 06:01:43;;;;;;;4.97;2.80;;;;;;;11.12;100.00;97201.78;5077478;28;20231;-70
2023/10/01 06:04:12;;;;;;;5.10;2.40;;;;;;;11.18;100.00;97203.78;5078329;28;20303;-70
2023/10/01 06:06:42;;;;;;;4.13;2.40;;;;;;;11.22;100.00;97199.03;5077009;28;20342;-71
2023/10/01 06:09:14;;;;;;;4.13;2.00;;;;;;;11.20;100.00;97212.41;5078028;28;20200;-70
2023/10/01 06:11:51;;;;;;;5.53;3.37;;;;;;;11.37;100.00;97208.03;5077708;28;20227;-70
2023/10/01 06:17:04;;;;;;;8.43;3.37;;;;;;;11.44;100.00;97215.13;5076095;28;20200;-70
2023/10/01 06:19:33;;;;;;;7.87;3.57;;;;;;;11.50;100.00;97214.53;5077370;28;20204;-71
2023/10/01 06:22:12;;;;;;;6.17;2.83;;;;;;;11.67;100.00;97218.88;5076887;28;21119;-70
2023/10/01 06:24:39;;;;;;;7.77;2.67;;;;;;;11.64;100.00;97227.13;5076092;28;20199;-71
2023/10/01 06:27:06;;;;;;;8.07;3.43;;;;;;;11.73;100.00;97234.09;5075444;28;20235;-70
2023/10/01 06:29:44;;;;;;;6.57;2.90;;;;;;;12.02;100.00;97234.50;5075334;28;20200;-71
2023/10/01 06:32:10;;;;;;;8.73;3.30;;;;;;;12.05;100.00;97242.09;5075518;28;20226;-71
2023/10/01 06:34:39;;;;;;;9.03;3.77;;;;;;;12.30;100.00;97242.81;5074629;28;20665;-70
2023/10/01 06:37:06;;;;;;;6.77;3.67;;;;;;;12.52;100.00;97247.44;5074799;28;20220;-70
2023/10/01 06:39:35;;;;;;;9.90;3.83;;;;;;;12.63;100.00;97249.78;5074544;28;20314;-70
2023/10/01 06:44:45;;;;;;;9.53;3.43;;;;;;;12.80;100.00;97248.78;5072528;28;20465;-70
2023/10/01 06:47:15;;;;;;;5.73;2.93;;;;;;;12.63;100.00;97248.97;5073950;28;20297;-70
2023/10/01 06:49:56;;;;;;;9.60;3.47;;;;;;;12.76;100.00;97258.03;5075453;28;20223;-70
2023/10/01 06:52:24;;;;;;;10.37;3.50;;;;;;;12.68;100.00;97250.13;5073458;28;20223;-70
2023/10/01 06:54:52;;;;;;;8.63;3.77;;;;;;;12.90;100.00;97250.28;5074113;28;20876;-70
2023/10/01 06:57:21;;;;;;;12.87;5.27;;;;;;;12.98;100.00;97260.03;5074416;28;20203;-71
2023/10/01 06:59:49;;;;;;;8.40;3.80;;;;;;;13.19;100.00;97252.41;5072708;28;20674;-71
2023/10/01 07:02:16;;;;;;;7.97;3.57;;;;;;;13.00;100.00;97255.41;5074109;28;20223;-69
2023/10/01 07:04:55;;;;;;;7.90;4.00;;;;;;;13.22;100.00;97258.19;5074023;28;20215;-71
2023/10/01 07:07:23;;;;;;;8.53;3.93;;;;;;;13.34;100.00;97266.59;5073926;28;20227;-71
2023/10/01 07:09:51;;;;;;;12.90;4.73;;;;;;;13.38;100.00;97262.59;5073818;28;20455;-71
2023/10/01 07:12:18;;;;;;;10.10;4.70;;;;;;;13.49;100.00;97261.28;5074494;28;20255;-70
2023/10/01 07:14:45;;;;;;;8.53;3.97;;;;;;;13.49;100.00;97261.28;5073380;28;20200;-70
2023/10/01 07:17:19;;;;;;;11.50;4.10;;;;;;;13.75;100.00;97259.19;5073551;28;20196;-71
2023/10/01 07:19:58;;;;;;;9.40;4.60;;;;;;;13.64;100.00;97254.25;5075078;28;20211;-71
2023/10/01 07:22:25;;;;;;;11.90;4.30;;;;;;;13.62;100.00;97258.06;5074633;28;20231;-70
2023/10/01 07:24:52;;;;;;;7.90;3.83;;;;;;;13.59;100.00;97258.41;5075036;28;20207;-70
2023/10/01 07:27:18;;;;;;;9.43;4.47;;;;;;;13.68;100.00;97255.59;5073329;28;20235;-71
2023/10/01 07:29:45;;;;;;;10.83;4.43;;;;;;;13.94;100.00;97256.13;5074262;28;20208;-71
2023/10/01 07:32:13;;;;;;;10.27;4.83;;;;;;;14.14;100.00;97257.38;5072844;28;20276;-71
2023/10/01 07:34:40;;;;;;;12.47;5.03;;;;;;;14.11;100.00;97258.53;5073987;28;20200;-71
2023/10/01 07:37:07;;;;;;;9.90;4.20;;;;;;;14.41;100.00;97264.81;5074483;28;20199;-70
2023/10/01 07:39:37;;;;;;;12.77;4.47;;;;;;;14.03;100.00;97268.34;5075085;28;20204;-70
2023/10/01 07:42:05;;;;;;;9.00;4.20;;;;;;;14.65;100.00;97268.97;5075175;28;20300;-70
2023/10/01 07:44:33;;;;;;;10.07;5.00;;;;;;;14.68;100.00;97263.31;5074605;28;20200;-71
2023/10/01 07:47:00;;;;;;;13.10;4.50;;;;;;;14.52;100.00;97272.38;5074587;28;20216;-70
2023/10/01 07:49:44;;;;;;;10.33;4.90;;;;;;;14.63;100.00;97276.28;5074965;28;20207;-70
2023/10/01 07:52:10;;;;;;;8.03;3.77;;;;;;;14.87;100.00;97276.09;5075276;28;20215;-70
2023/10/01 07:54:38;;;;;;;11.00;4.13;;;;;;;15.14;100.00;97270.22;5074319;28;20260;-70
2023/10/01 07:57:08;;;;;;;7.97;3.37;;;;;;;15.69;100.00;97262.69;5074283;28;20314;-70
2023/10/01 07:59:35;;;;;;;12.52;4.95;;;;;;;15.64;100.00;97268.56;5074480;28;20239;-71
2023/10/01 08:02:09;;;;;;;11.30;5.22;;;;;;;15.51;100.00;97278.19;5074703;28;20220;-71
2023/10/01 08:04:51;;;;;;;8.27;3.40;;;;;;;15.81;100.00;97275.34;5075289;28;20206;-72
2023/10/01 08:07:22;;;;;;;10.52;4.57;;;;;;;15.62;100.00;97275.91;5075197;28;20684;-70
2023/10/01 08:09:52;;;;;;;13.40;5.07;;;;;;;15.48;100.00;97281.22;5074454;28;20791;-69
2023/10/01 08:12:19;;;;;;;11.57;4.32;;;;;;;15.64;100.00;97278.38;5074449;28;21367;-70
2023/10/01 08:15:15;;;;;;;11.68;3.75;;;;;;;16.18;100.00;97269.91;5075102;28;20203;-70
2023/10/01 08:17:34;;;;;;;10.30;4.13;;;;;;;16.34;100.00;97278.50;5074871;28;20222;-72
2023/10/01 08:20:14;;;;;;;14.40;4.90;;;;;;;16.19;100.00;97275.03;5075225;28;20629;-72
2023/10/01 08:23:09;;;;;;;11.48;5.03;;;;;;;15.99;100.00;97273.13;5075448;28;20261;-70
2023/10/01 08:25:32;;;;;;;11.63;4.88;;;;;;;15.93;100.00;97273.88;5077294;28;20242;-70
2023/10/01 08:31:01;;;;;;;11.60;4.82;;;;;;;15.75;100.00;97275.28;5079985;28;20242;-70
2023/10/01 08:33:32;;;;;;;11.68;5.13;;;;;;;15.96;100.00;97277.00;5078391;28;20238;-70
2023/10/01 08:36:12;;;;;;;17.83;5.95;;;;;;;16.24;100.00;97271.81;5077894;28;20206;-70
2023/10/01 08:38:38;;;;;;;12.20;5.25;;;;;;;16.13;100.00;97275.78;5077977;28;20665;-71
2023/10/01 08:41:06;;;;;;;14.80;5.25;;;;;;;16.32;100.00;97272.56;5079008;28;20223;-71
2023/10/01 08:43:35;;;;;;;9.90;4.15;;;;;;;16.41;100.00;97271.44;5077866;28;20203;-70
2023/10/01 08:46:13;;;;;;;12.05;5.03;;;;;;;16.40;100.00;97277.75;5076416;28;20245;-71
2023/10/01 08:48:43;;;;;;;15.40;5.18;;;;;;;16.50;100.00;97283.63;5075494;28;20227;-71
2023/10/01 08:51:12;;;;;;;13.50;5.22;;;;;;;16.89;100.00;97278.69;5078050;28;20481;-71
2023/10/01 08:53:41;;;;;;;14.00;6.05;;;;;;;16.93;100.00;97274.63;5078848;28;20336;-71
2023/10/01 08:56:13;;;;;;;15.25;5.57;;;;;;;17.04;100.00;97284.75;5075618;28;20208;-71
2023/10/01 08:58:48;;;;;;;12.82;4.80;;;;;;;17.18;100.00;97285.53;5076173;28;20199;-71
2023/10/01 09:01:19;;;;;;;12.68;3.95;;;;;;;17.32;100.00;97283.81;5077900;28;20219;-72
2023/10/01 09:03:48;;;;;;;9.07;4.88;;;;;;;17.66;100.00;97284.66;5076437;28;20234;-72
2023/10/01 09:06:26;;;;;;;12.43;4.63;;;;;;;17.79;100.00;97290.09;5076514;28;20599;-72
2023/10/01 09:08:55;;;;;;;15.82;4.72;;;;;;;18.10;100.00;97282.44;5076249;28;20919;-72
2023/10/01 09:11:35;;;;;;;16.27;5.25;;;;;;;18.41;100.00;97281.78;5075999;28;20313;-71
2023/10/01 09:16:44;;;;;;;13.35;4.68;;;;;;;18.49;100.00;97284.28;5076197;28;20211;-70
2023/10/01 09:21:55;;;;;;;8.63;3.83;;;;;;;18.65;100.00;97275.13;5074914;28;20238;-71
2023/10/01 09:24:39;;;;;;;10.25;3.97;;;;;;;18.80;100.00;97271.25;5076886;28;20192;-72
2023/10/01 09:27:19;;;;;;;13.15;4.38;;;;;;;18.78;100.00;97267.94;5076746;28;20220;-72
2023/10/01 09:29:48;;;;;;;10.48;4.20;;;;;;;18.76;100.00;97264.66;5077211;28;20210;-71
2023/10/01 09:32:15;;;;;;;12.30;4.05;;;;;;;18.92;100.00;97269.59;5077518;28;20279;-71
2023/10/01 09:34:53;;;;;;;9.65;3.75;;;;;;;19.33;100.00;97263.06;5075899;28;20211;-71
2023/10/01 09:37:33;;;;;;;12.45;3.90;;;;;;;19.35;100.00;97268.25;5075506;28;20202;-71
2023/10/01 09:40:05;;;;;;;9.82;4.70;;;;;;;19.30;100.00;97271.50;5075665;28;20203;-71
2023/10/01 09:42:44;;;;;;;9.70;3.90;;;;;;;19.58;100.00;97267.56;5077549;28;20220;-72
2023/10/01 09:45:26;;;;;;;12.18;4.43;;;;;;;19.77;100.00;97266.72;5075423;28;20202;-70
2023/10/01 09:48:03;;;;;;;14.68;3.90;;;;;;;20.10;100.00;97262.16;5075552;28;20231;-71
2023/10/01 09:50:39;;;;;;;9.70;4.00;;;;;;;20.18;100.00;97259.25;5076237;28;20203;-72
2023/10/01 09:53:12;;;;;;;8.95;3.83;;;;;;;20.46;100.00;97257.06;5076466;28;20200;-71
2023/10/01 09:55:48;;;;;;;12.95;3.97;;;;;;;20.60;100.00;97262.13;5075040;28;20202;-72
2023/10/01 09:58:24;;;;;;;8.10;3.30;;;;;;;20.58;100.00;97260.69;5076549;28;20227;-68
2023/10/01 10:00:52;;;;;;;11.60;4.32;;;;;;;20.56;100.00;97258.25;5075125;28;20259;-69
2023/10/01 10:03:20;;;;;;;12.80;3.75;;;;;;;20.87;100.00;97261.81;5076478;28;20218;-70
2023/10/01 10:05:47;;;;;;;11.65;3.08;;;;;;;21.30;100.00;97259.22;5073071;28;20206;-70
2023/10/01 10:08:20;;;;;;;9.95;3.33;;;;;;;21.45;100.00;97260.53;5076817;28;20235;-71
2023/10/01 10:10:49;;;;;;;14.13;5.00;;;;;;;21.54;100.00;97254.69;5075576;28;20227;-70
2023/10/01 10:13:45;;;;;;;13.05;4.05;;;;;;;21.53;100.00;97254.91;5076975;28;20573;-71
2023/10/01 10:19:08;;;;;;;11.77;2.90;;;;;;;22.00;100.00;97248.88;5075790;28;20206;-70
2023/10/01 10:22:12;;;;;;;11.90;3.97;;;;;;;22.16;100.00;97249.91;5076097;28;20230;-69
2023/10/01 10:24:46;;;;;;;8.60;2.88;;;;;;;21.52;100.00;97250.59;5077264;28;20311;-69
2023/10/01 10:27:17;;;;;;;11.77;4.13;;;;;;;21.59;100.00;97254.03;5076578;28;20917;-69
2023/10/01 10:30:21;;;;;;;9.60;3.40;;;;;;;21.91;100.00;97247.53;5077041;28;20207;-68
2023/10/01 10:33:43;;;;;;;11.77;3.65;;;;;;;22.05;100.00;97239.91;5075466;28;20293;-69
2023/10/01 10:36:53;;;;;;;11.75;3.40;;;;;;;22.09;100.00;97233.03;5075988;28;20365;-70
2023/10/01 10:43:07;;;;;;;9.60;2.72;;;;;;;22.01;100.00;97231.69;5071085;28;20203;-70
2023/10/01 10:45:42;;;;;;;9.45;3.22;;;;;;;21.80;97.52;97232.97;5076232;28;20204;-70
2023/10/01 10:48:09;;;;;;;5.22;2.53;;;;;;;21.76;100.00;97233.63;5074708;28;20223;-70
2023/10/01 10:50:39;;;;;;;6.07;2.40;;;;;;;22.13;100.00;97222.69;5075899;28;20216;-69
2023/10/01 10:53:15;;;;;;;9.07;2.50;;;;;;;22.11;94.90;97230.16;5077899;28;20573;-70
2023/10/01 10:55:51;;;;;;;9.40;2.47;;;;;;;22.68;95.13;97235.81;5075823;28;20203;-70
2023/10/01 10:58:19;;;;;;;10.55;3.75;;;;;;;22.61;97.35;97231.63;5075652;28;20192;-70
2023/10/01 11:00:47;;;;;;;10.40;3.10;;;;;;;22.51;91.41;97221.38;5076348;28;20224;-70
2023/10/01 11:03:13;;;;;;;9.77;2.22;;;;;;;22.33;86.83;97217.94;5077620;28;20301;-70
2023/10/01 11:05:49;;;;;;;10.60;2.60;;;;;;;22.26;88.86;97211.81;5075860;28;20202;-70
2023/10/01 11:08:25;;;;;;;10.52;2.47;;;;;;;22.26;91.28;97217.19;5076072;28;20787;-70
2023/10/01 11:10:55;;;;;;;8.35;2.78;;;;;;;22.33;95.16;97212.56;5075842;28;20231;-70
2023/10/01 11:13:36;;;;;;;9.52;2.80;;;;;;;22.44;90.96;97206.41;5077226;28;20196;-70
2023/10/01 11:16:14;;;;;;;4.90;2.10;;;;;;;22.30;94.30;97200.41;5075642;28;20215;-70
2023/10/01 11:18:41;;;;;;;5.88;2.47;;;;;;;22.11;92.08;97212.16;5076076;28;20207;-70
2023/10/01 11:21:11;;;;;;;12.02;2.95;;;;;;;22.48;94.39;97211.09;5075716;28;20216;-70
2023/10/01 11:23:41;;;;;;;6.03;2.97;;;;;;;22.40;88.89;97203.38;5076497;28;20212;-70
2023/10/01 11:26:26;;;;;;;5.00;2.40;;;;;;;22.30;99.43;97194.19;5075504;28;20915;-70
2023/10/01 11:28:52;;;;;;;11.43;2.55;;;;;;;22.00;100.00;97196.00;5074576;28;20225;-71
2023/10/01 11:31:22;;;;;;;5.35;1.88;;;;;;;22.08;98.38;97193.00;5074164;28;20226;-70
2023/10/01 11:33:59;;;;;;;8.55;2.40;;;;;;;22.11;93.95;97181.81;5073297;28;20206;-70
2023/10/01 11:36:35;;;;;;;9.10;2.50;;;;;;;21.80;97.64;97184.66;5073274;28;20208;-70
2023/10/01 11:39:03;;;;;;;5.20;2.10;;;;;;;22.04;95.50;97180.25;5073708;28;20257;-69
2023/10/01 11:41:41;;;;;;;11.23;2.65;;;;;;;22.31;94.66;97175.19;5074051;28;20297;-70
2023/10/01 11:44:09;;;;;;;10.50;3.10;;;;;;;22.20;91.26;97175.91;5069373;28;20209;-71
2023/10/01 11:46:56;;;;;;;10.73;2.47;;;;;;;22.18;90.30;97178.00;5074298;28;20196;-71
2023/10/01 11:49:32;;;;;;;6.93;2.72;;;;;;;22.41;91.19;97177.31;5073431;28;20937;-71
2023/10/01 11:52:02;;;;;;;12.05;2.75;;;;;;;22.22;91.54;97173.84;5072202;28;20414;-69
2023/10/01 11:54:43;;;;;;;8.95;3.05;;;;;;;22.43;94.15;97175.22;5072478;28;20204;-70
2023/10/01 11:57:22;;;;;;;7.90;2.65;;;;;;;22.21;94.51;97172.19;5071889;28;20200;-70
2023/10/01 11:59:54;;;;;;;10.35;2.50;;;;;;;22.34;95.63;97166.66;5072153;28;20219;-70
2023/10/01 12:02:25;;;;;;;10.93;2.65;;;;;;;22.40;95.42;97163.06;5073299;28;20226;-71
2023/10/01 12:04:57;;;;;;;6.63;2.70;;;;;;;22.27;95.10;97160.53;5072355;28;20735;-71
2023/10/01 12:07:26;;;;;;;10.50;2.58;;;;;;;22.55;92.93;97163.47;5071452;28;20204;-71
2023/10/01 12:09:55;;;;;;;10.70;2.55;;;;;;;22.34;90.13;97150.56;5073163;28;20219;-71
2023/10/01 12:12:27;;;;;;;7.18;2.60;;;;;;;22.54;88.89;97159.13;5072874;28;20222;-71
2023/10/01 12:14:53;;;;;;;5.97;2.33;;;;;;;22.30;87.39;97154.75;5072012;28;20255;-70